createdAt,value
2023-05-08T00:01:50.648Z,100695.13
2023-05-08T00:04:57.010Z,100692.25
2023-05-08T00:08:04.197Z,100700.12
2023-05-08T00:11:10.348Z,100702.17
2023-05-08T00:14:15.848Z,100696.92
2023-05-08T00:17:22.045Z,100700.66
2023-05-08T00:20:27.218Z,100703.40
2023-05-08T00:23:32.723Z,100700.23
2023-05-08T00:26:38.062Z,100697.70
2023-05-08T00:29:43.387Z,100708.13
2023-05-08T00:32:48.959Z,100693.94
2023-05-08T00:35:54.877Z,100702.81
2023-05-08T00:39:00.334Z,100705.05
2023-05-08T00:42:05.985Z,100710.72
2023-05-08T00:45:11.168Z,100701.80
2023-05-08T00:48:17.300Z,100706.30
2023-05-08T00:51:23.435Z,100701.17
2023-05-08T00:54:23.243Z,100700.89
2023-05-08T00:57:15.849Z,100708.39
2023-05-08T01:00:21.634Z,100709.55
2023-05-08T01:03:27.890Z,100693.69
2023-05-08T01:06:35.049Z,100698.16
2023-05-08T01:09:40.927Z,100703.92
2023-05-08T01:13:00.045Z,100705.80
2023-05-08T01:16:16.558Z,100709.11
2023-05-08T01:19:54.707Z,100702.86
2023-05-08T01:23:14.613Z,100704.53
2023-05-08T01:26:28.451Z,100706.61
2023-05-08T01:29:43.435Z,100699.32
2023-05-08T01:32:55.205Z,100695.83
2023-05-08T01:36:04.891Z,100692.30
2023-05-08T01:39:49.598Z,100703.96
2023-05-08T01:43:22.731Z,100709.82
2023-05-08T01:46:33.792Z,100709.94
2023-05-08T01:49:42.887Z,100710.20
2023-05-08T01:53:02.526Z,100703.36
2023-05-08T01:56:12.732Z,100707.74
2023-05-08T01:59:17.939Z,100707.81
2023-05-08T02:02:24.269Z,100712.25
2023-05-08T02:05:29.643Z,100707.89
2023-05-08T02:08:35.149Z,100710.58
2023-05-08T02:11:41.215Z,100714.98
2023-05-08T02:14:48.990Z,100720.28
2023-05-08T02:17:56.152Z,100712.81
2023-05-08T02:21:03.693Z,100709.06
2023-05-08T02:24:03.978Z,100714.41
2023-05-08T02:27:09.235Z,100726.84
2023-05-08T02:30:14.058Z,100729.29
2023-05-08T02:33:19.783Z,100720.19
2023-05-08T02:36:27.330Z,100720.61
2023-05-08T02:39:32.304Z,100721.18
2023-05-08T02:42:37.127Z,100721.16
2023-05-08T02:45:44.932Z,100732.02
2023-05-08T02:49:12.632Z,100728.06
2023-05-08T02:52:31.821Z,100727.67
2023-05-08T02:56:04.848Z,100718.82
2023-05-08T02:59:30.319Z,100726.36
2023-05-08T03:02:52.141Z,100728.60
2023-05-08T03:06:06.912Z,100709.13
2023-05-08T03:09:11.552Z,100701.56
2023-05-08T03:12:19.736Z,100701.60
2023-05-08T03:15:32.559Z,100709.80
2023-05-08T03:18:49.005Z,100707.58
2023-05-08T03:21:54.088Z,100715.77
2023-05-08T03:25:00.720Z,100716.99
2023-05-08T03:28:07.899Z,100724.55
2023-05-08T03:31:14.617Z,100719.77
2023-05-08T03:34:21.563Z,100720.45
2023-05-08T03:37:28.210Z,100727.48
2023-05-08T03:40:33.442Z,100719.89
2023-05-08T03:43:39.692Z,100733.43
2023-05-08T03:46:39.692Z,100733.79
2023-05-08T03:49:46.541Z,100727.52
2023-05-08T03:52:53.432Z,100729.03
2023-05-08T03:55:58.426Z,100729.52
2023-05-08T03:59:17.341Z,100742.17
2023-05-08T04:02:42.229Z,100731.63
2023-05-08T04:05:51.487Z,100743.58
2023-05-08T04:09:06.168Z,100738.48
2023-05-08T04:12:29.238Z,100740.19
2023-05-08T04:15:44.015Z,100742.10
2023-05-08T04:18:51.822Z,100738.19
2023-05-08T04:21:58.829Z,100739.03
2023-05-08T04:25:05.139Z,100735.33
2023-05-08T04:28:10.692Z,100734.79
2023-05-08T04:31:15.586Z,100734.84
2023-05-08T04:34:21.838Z,100724.89
2023-05-08T04:37:43.409Z,100730.22
2023-05-08T04:40:49.683Z,100726.59
2023-05-08T04:43:48.903Z,100733.30
2023-05-08T04:46:57.072Z,100749.89
2023-05-08T04:50:02.826Z,100738.58
2023-05-08T04:53:09.819Z,100733.28
2023-05-08T04:56:16.559Z,100734.14
2023-05-08T04:59:22.106Z,100732.59
2023-05-08T05:02:26.717Z,100739.91
2023-05-08T05:05:32.015Z,100742.51
2023-05-08T05:08:38.861Z,100736.88
2023-05-08T05:11:44.708Z,100755.69
2023-05-08T05:14:51.192Z,100733.80
2023-05-08T05:18:00.463Z,100739.81
2023-05-08T05:21:05.934Z,100751.59
2023-05-08T05:24:12.501Z,100751.27
2023-05-08T05:27:19.279Z,100745.09
2023-05-08T05:30:25.439Z,100737.55
2023-05-08T05:33:31.102Z,100733.77
2023-05-08T05:36:36.360Z,100736.13
2023-05-08T05:39:44.925Z,100731.90
2023-05-08T05:42:52.384Z,100752.27
2023-05-08T05:45:59.820Z,100730.45
2023-05-08T05:49:06.196Z,100749.33
2023-05-08T05:52:12.548Z,100711.77
2023-05-08T05:55:17.560Z,100739.69
2023-05-08T05:58:23.719Z,100730.23
2023-05-08T06:01:31.655Z,100737.06
2023-05-08T06:04:37.183Z,100757.55
2023-05-08T06:07:43.761Z,100739.53
2023-05-08T06:10:49.413Z,100741.54
2023-05-08T06:13:56.503Z,100740.43
2023-05-08T06:17:02.753Z,100743.16
2023-05-08T06:20:09.136Z,100761.73
2023-05-08T06:23:14.500Z,100762.94
2023-05-08T06:26:22.725Z,100766.25
2023-05-08T06:29:26.648Z,100759.41
2023-05-08T06:32:32.341Z,100756.17
2023-05-08T06:35:38.139Z,100776.47
2023-05-08T06:38:44.756Z,100749.73
2023-05-08T06:41:50.961Z,100755.84
2023-05-08T06:45:00.906Z,100748.35
2023-05-08T06:47:59.635Z,100760.27
2023-05-08T06:51:06.504Z,100760.08
2023-05-08T06:54:14.582Z,100762.12
2023-05-08T06:57:21.409Z,100761.55
2023-05-08T07:00:27.721Z,100760.62
2023-05-08T07:03:33.113Z,100764.50
2023-05-08T07:06:39.823Z,100767.89
2023-05-08T07:09:45.731Z,100766.64
2023-05-08T07:12:54.800Z,100770.13
2023-05-08T07:15:59.472Z,100782.05
2023-05-08T07:19:04.692Z,100781.88
2023-05-08T07:22:12.175Z,100775.55
2023-05-08T07:25:19.707Z,100776.77
2023-05-08T07:28:25.972Z,100768.72
2023-05-08T07:31:31.357Z,100766.88
2023-05-08T07:34:37.271Z,100764.92
2023-05-08T07:37:42.454Z,100767.95
2023-05-08T07:40:47.532Z,100787.64
2023-05-08T07:43:53.502Z,100773.61
2023-05-08T07:46:59.850Z,100773.48
2023-05-08T07:50:04.654Z,100765.46
2023-05-08T07:53:10.997Z,100770.66
2023-05-08T07:56:17.629Z,100744.56
2023-05-08T07:59:23.218Z,100752.98
2023-05-08T08:02:31.406Z,100765.18
2023-05-08T08:05:37.912Z,100771.20
2023-05-08T08:08:37.271Z,100771.77
2023-05-08T08:11:24.512Z,100770.48
2023-05-08T08:14:18.199Z,100783.17
2023-05-08T08:17:20.192Z,100783.42
2023-05-08T08:20:26.509Z,100779.40
2023-05-08T08:23:33.364Z,100789.42
2023-05-08T08:26:44.149Z,100778.94
2023-05-08T08:29:49.776Z,100780.06
2023-05-08T08:32:56.033Z,100770.73
2023-05-08T08:36:02.579Z,100766.83
2023-05-08T08:39:10.995Z,100761.78
2023-05-08T08:42:16.076Z,100781.75
2023-05-08T08:45:22.653Z,100776.99
2023-05-08T08:48:28.659Z,100783.34
2023-05-08T08:52:10.539Z,100779.12
2023-05-08T08:55:16.821Z,100782.34
2023-05-08T08:58:47.661Z,100772.77
2023-05-08T09:01:58.260Z,100766.45
2023-05-08T09:05:05.398Z,100770.14
2023-05-08T09:08:11.862Z,100764.31
2023-05-08T09:11:22.073Z,100750.95
2023-05-08T09:14:27.911Z,100751.21
2023-05-08T09:17:32.881Z,100760.80
2023-05-08T09:20:39.234Z,100761.02
2023-05-08T09:23:37.966Z,100770.46
2023-05-08T09:26:50.324Z,100759.09
2023-05-08T09:32:38.221Z,100754.98
2023-05-08T09:35:52.490Z,100748.39
2023-05-08T09:38:58.536Z,100746.67
2023-05-08T09:42:17.180Z,100757.11
2023-05-08T09:45:25.532Z,100747.45
2023-05-08T09:48:30.607Z,100746.82
2023-05-08T09:51:39.437Z,100756.77
2023-05-08T09:54:45.894Z,100758.28
2023-05-08T09:57:55.546Z,100753.92
2023-05-08T10:01:01.168Z,100755.84
2023-05-08T10:03:59.688Z,100753.30
2023-05-08T10:07:14.306Z,100754.95
2023-05-08T10:10:21.473Z,100763.48
2023-05-08T10:13:28.622Z,100752.11
2023-05-08T10:16:34.116Z,100744.89
2023-05-08T10:19:29.831Z,100755.84
2023-05-08T10:22:34.895Z,100744.80
2023-05-08T10:25:40.799Z,100748.13
2023-05-08T10:29:22.576Z,100734.08
2023-05-08T10:32:28.284Z,100752.27
2023-05-08T10:35:33.976Z,100752.27
2023-05-08T10:38:41.180Z,100727.28
2023-05-08T10:41:46.877Z,100735.17
2023-05-08T10:44:53.459Z,100735.48
2023-05-08T10:48:19.174Z,100758.05
2023-05-08T10:51:31.667Z,100761.00
2023-05-08T10:55:25.039Z,100755.67
2023-05-08T10:58:39.459Z,100760.03
2023-05-08T11:01:44.361Z,100766.88
2023-05-08T11:04:50.783Z,100750.11
2023-05-08T11:08:14.154Z,100742.13
2023-05-08T11:11:26.799Z,100762.63
2023-05-08T11:14:32.762Z,100750.77
2023-05-08T11:17:39.559Z,100752.80
2023-05-08T11:21:15.421Z,100757.72
2023-05-08T11:24:26.638Z,100764.44
2023-05-08T11:27:31.854Z,100762.07
2023-05-08T11:30:50.827Z,100755.92
2023-05-08T11:33:56.742Z,100754.02
2023-05-08T11:37:16.639Z,100748.15
2023-05-08T11:40:24.542Z,100761.42
2023-05-08T11:43:43.338Z,100745.59
2023-05-08T11:46:57.379Z,100750.73
2023-05-08T11:50:02.969Z,100751.52
2023-05-08T11:53:08.428Z,100737.50
2023-05-08T11:56:15.087Z,100738.28
2023-05-08T11:59:21.890Z,100742.86
2023-05-08T12:02:28.419Z,100733.05
2023-05-08T12:05:42.040Z,100736.00
2023-05-08T12:08:47.571Z,100743.58
2023-05-08T12:11:54.420Z,100737.61
2023-05-08T12:15:05.804Z,100739.70
2023-05-08T12:18:15.186Z,100742.41
2023-05-08T12:21:22.264Z,100744.02
2023-05-08T12:24:29.973Z,100743.17
2023-05-08T12:27:35.297Z,100743.31
2023-05-08T12:30:40.995Z,100738.45
2023-05-08T12:33:47.795Z,100736.86
2023-05-08T12:36:53.847Z,100731.34
2023-05-08T12:39:59.587Z,100745.70
2023-05-08T12:43:05.392Z,100743.80
2023-05-08T12:46:10.653Z,100746.67
2023-05-08T12:49:18.244Z,100730.50
2023-05-08T12:52:25.897Z,100730.31
2023-05-08T12:55:41.266Z,100735.73
2023-05-08T12:58:48.723Z,100768.09
2023-05-08T13:01:53.497Z,100740.60
2023-05-08T13:04:59.017Z,100742.50
2023-05-08T13:08:06.111Z,100762.83
2023-05-08T13:11:12.638Z,100751.35
2023-05-08T13:14:18.060Z,100760.28
2023-05-08T13:17:23.376Z,100772.34
2023-05-08T13:20:29.967Z,100765.75
2023-05-08T13:23:35.305Z,100758.97
2023-05-08T13:26:40.856Z,100758.66
2023-05-08T13:29:47.453Z,100757.58
2023-05-08T13:32:54.843Z,100754.06
2023-05-08T13:36:00.832Z,100769.77
2023-05-08T13:39:06.235Z,100777.88
2023-05-08T13:42:13.511Z,100765.17
2023-05-08T13:45:15.815Z,100782.11
2023-05-08T13:48:20.820Z,100781.16
2023-05-08T13:51:26.859Z,100778.48
2023-05-08T13:54:32.641Z,100778.02
2023-05-08T13:57:38.372Z,100783.14
2023-05-08T14:00:43.650Z,100778.77
2023-05-08T14:03:50.123Z,100777.04
2023-05-08T14:06:56.320Z,100772.73
2023-05-08T14:10:02.152Z,100782.77
2023-05-08T14:13:07.956Z,100782.37
2023-05-08T14:16:14.831Z,100780.01
2023-05-08T14:19:21.335Z,100773.19
2023-05-08T14:22:26.706Z,100779.32
2023-05-08T14:25:31.718Z,100777.30
2023-05-08T14:28:37.486Z,100781.33
2023-05-08T14:31:42.474Z,100777.62
2023-05-08T14:34:47.629Z,100781.67
2023-05-08T14:37:53.471Z,100782.77
2023-05-08T14:41:00.238Z,100774.88
2023-05-08T14:44:06.559Z,100767.27
2023-05-08T14:47:23.997Z,100775.02
2023-05-08T14:50:34.530Z,100764.20
2023-05-08T14:53:40.633Z,100774.08
2023-05-08T14:56:47.859Z,100769.02
2023-05-08T14:59:55.248Z,100761.78
2023-05-08T15:03:00.548Z,100761.23
2023-05-08T15:06:06.170Z,100758.11
2023-05-08T15:09:12.029Z,100755.92
2023-05-08T15:12:10.311Z,100766.49
2023-05-08T15:15:17.180Z,100764.37
2023-05-08T15:18:22.115Z,100759.42
2023-05-08T15:21:29.659Z,100767.38
2023-05-08T15:24:35.272Z,100765.05
2023-05-08T15:27:41.098Z,100774.62
2023-05-08T15:30:47.107Z,100789.91
2023-05-08T15:33:55.150Z,100799.06
2023-05-08T15:37:01.860Z,100793.70
2023-05-08T15:40:06.928Z,100786.92
2023-05-08T15:43:12.532Z,100794.19
2023-05-08T15:46:17.263Z,100805.95
2023-05-08T15:49:23.066Z,100806.33
2023-05-08T15:52:29.729Z,100811.25
2023-05-08T15:55:35.188Z,100803.57
2023-05-08T15:58:41.905Z,100806.75
2023-05-08T16:01:49.835Z,100801.52
2023-05-08T16:04:56.472Z,100810.84
2023-05-08T16:08:02.190Z,100807.70
2023-05-08T16:11:09.220Z,100799.97
2023-05-08T16:14:14.825Z,100800.40
2023-05-08T16:17:12.747Z,100804.73
2023-05-08T16:20:19.220Z,100817.39
2023-05-08T16:23:24.886Z,100817.12
2023-05-08T16:26:31.129Z,100832.62
2023-05-08T16:29:36.295Z,100827.50
2023-05-08T16:32:43.006Z,100828.11
2023-05-08T16:35:48.582Z,100828.97
2023-05-08T16:38:55.338Z,100830.10
2023-05-08T16:42:02.990Z,100830.95
2023-05-08T16:45:13.455Z,100837.59
2023-05-08T16:48:21.641Z,100838.55
2023-05-08T16:51:28.511Z,100842.02
2023-05-08T16:54:34.912Z,100846.38
2023-05-08T16:57:40.410Z,100853.14
2023-05-08T17:00:45.933Z,100851.86
2023-05-08T17:03:44.401Z,100855.76
2023-05-08T17:06:50.385Z,100857.89
2023-05-08T17:09:57.707Z,100855.73
2023-05-08T17:13:02.288Z,100864.48
2023-05-08T17:16:09.797Z,100865.52
2023-05-08T17:19:08.429Z,100882.41
2023-05-08T17:22:14.169Z,100884.07
2023-05-08T17:25:19.256Z,100891.47
2023-05-08T17:28:28.271Z,100897.16
2023-05-08T17:31:34.525Z,100893.58
2023-05-08T17:34:40.915Z,100903.89
2023-05-08T17:37:46.221Z,100898.92
2023-05-08T17:40:51.738Z,100899.77
2023-05-08T17:43:58.376Z,100900.97
2023-05-08T17:47:03.239Z,100902.70
2023-05-08T17:50:08.221Z,100905.96
2023-05-08T17:53:13.926Z,100910.93
2023-05-08T17:56:20.699Z,100915.05
2023-05-08T17:59:26.612Z,100915.03
2023-05-08T18:02:33.539Z,100919.52
2023-05-08T18:05:38.982Z,100921.38
2023-05-08T18:08:45.591Z,100929.25
2023-05-08T18:11:51.785Z,100928.39
2023-05-08T18:14:57.426Z,100931.14
2023-05-08T18:18:05.347Z,100929.09
2023-05-08T18:21:12.097Z,100932.52
2023-05-08T18:24:17.877Z,100934.06
2023-05-08T18:27:23.559Z,100932.98
2023-05-08T18:30:22.608Z,100924.61
2023-05-08T18:33:28.173Z,100925.08
2023-05-08T18:36:33.976Z,100922.14
2023-05-08T18:39:39.397Z,100927.92
2023-05-08T18:42:44.926Z,100931.39
2023-05-08T18:45:55.521Z,100925.44
2023-05-08T18:49:01.518Z,100931.23
2023-05-08T18:52:07.620Z,100934.65
2023-05-08T18:55:13.545Z,100926.94
2023-05-08T18:58:18.873Z,100931.16
2023-05-08T19:01:28.565Z,100929.42
2023-05-08T19:04:33.743Z,100932.71
2023-05-08T19:07:40.050Z,100941.44
2023-05-08T19:10:46.829Z,100942.47
2023-05-08T19:13:52.609Z,100936.98
2023-05-08T19:16:58.726Z,100937.84
2023-05-08T19:20:04.818Z,100934.92
2023-05-08T19:23:09.804Z,100937.66
2023-05-08T19:26:16.432Z,100933.21
2023-05-08T19:29:21.643Z,100931.84
2023-05-08T19:32:27.271Z,100929.77
2023-05-08T19:35:33.353Z,100931.32
2023-05-08T19:38:39.864Z,100932.36
2023-05-08T19:41:46.649Z,100931.84
2023-05-08T19:44:53.391Z,100931.14
2023-05-08T19:48:08.197Z,100929.43
2023-05-08T19:51:10.899Z,100932.84
2023-05-08T19:54:17.591Z,100932.45
2023-05-08T19:57:22.681Z,100934.88
2023-05-08T20:00:29.666Z,100930.05
2023-05-08T20:03:35.293Z,100927.63
2023-05-08T20:06:40.566Z,100925.27
2023-05-08T20:09:46.074Z,100924.73
2023-05-08T20:12:51.740Z,100913.95
2023-05-08T20:15:57.339Z,100909.32
2023-05-08T20:19:03.380Z,100903.32
2023-05-08T20:22:09.227Z,100910.18
2023-05-08T20:25:14.842Z,100913.78
2023-05-08T20:28:20.131Z,100916.72
2023-05-08T20:31:25.568Z,100914.34
2023-05-08T20:34:32.136Z,100912.97
2023-05-08T20:37:37.817Z,100911.94
2023-05-08T20:40:43.798Z,100905.73
2023-05-08T20:43:48.986Z,100905.73
2023-05-08T20:46:49.049Z,100908.80
2023-05-08T20:49:55.154Z,100906.58
2023-05-08T20:53:00.691Z,100904.16
2023-05-08T20:56:06.170Z,100916.64
2023-05-08T20:59:12.076Z,100909.30
2023-05-08T21:02:18.539Z,100912.58
2023-05-08T21:05:24.042Z,100907.75
2023-05-08T21:08:57.967Z,100907.05
2023-05-08T21:12:21.638Z,100902.06
2023-05-08T21:15:26.848Z,100903.75
2023-05-08T21:18:32.869Z,100905.30
2023-05-08T21:21:38.939Z,100907.73
2023-05-08T21:24:45.982Z,100904.27
2023-05-08T21:27:53.378Z,100903.23
2023-05-08T21:31:00.486Z,100898.05
2023-05-08T21:34:25.031Z,100904.56
2023-05-08T21:37:48.771Z,100898.11
2023-05-08T21:40:54.720Z,100893.14
2023-05-08T21:44:00.522Z,100898.23
2023-05-08T21:47:09.608Z,100896.52
2023-05-08T21:50:15.456Z,100896.66
2023-05-08T21:53:21.226Z,100900.98
2023-05-08T21:56:26.224Z,100897.52
2023-05-08T21:59:32.885Z,100894.63
2023-05-08T22:02:38.431Z,100893.14
2023-05-08T22:05:45.456Z,100886.62
2023-05-08T22:08:50.271Z,100889.03
2023-05-08T22:11:56.492Z,100877.56
2023-05-08T22:15:01.912Z,100880.33
2023-05-08T22:18:09.163Z,100880.30
2023-05-08T22:21:14.024Z,100879.59
2023-05-08T22:24:22.287Z,100877.84
2023-05-08T22:27:27.503Z,100878.19
2023-05-08T22:30:33.392Z,100878.70
2023-05-08T22:33:41.075Z,100872.30
2023-05-08T22:36:47.801Z,100869.18
2023-05-08T22:39:53.071Z,100871.92
2023-05-08T22:42:58.611Z,100867.24
2023-05-08T22:46:04.253Z,100870.30
2023-05-08T22:49:10.775Z,100865.86
2023-05-08T22:52:15.964Z,100864.91
2023-05-08T22:55:22.587Z,100855.92
2023-05-08T22:58:28.364Z,100851.81
2023-05-08T23:01:35.515Z,100844.77
2023-05-08T23:04:40.779Z,100838.73
2023-05-08T23:07:45.600Z,100839.32
2023-05-08T23:10:51.313Z,100832.18
2023-05-08T23:13:57.604Z,100835.63
2023-05-08T23:17:03.114Z,100834.27
2023-05-08T23:20:08.175Z,100839.57
2023-05-08T23:23:13.636Z,100827.94
2023-05-08T23:26:19.090Z,100828.97
2023-05-08T23:29:24.402Z,100825.23
2023-05-08T23:32:29.988Z,100834.30
2023-05-08T23:35:36.336Z,100831.19
2023-05-08T23:38:41.959Z,100831.36
2023-05-08T23:41:46.651Z,100835.16
2023-05-08T23:44:52.544Z,100823.14
2023-05-08T23:47:59.452Z,100820.41
2023-05-08T23:51:04.412Z,100824.17
2023-05-08T23:54:09.896Z,100833.39
2023-05-08T23:57:15.939Z,100825.70
